sensor_id;sensor_type;location;lat;lon;timestamp;P1;durP1;ratioP1;P2;durP2;ratioP2
8094;SDS011;4090;49.270;8.696;2022-08-21T00:00:08;4.43;;;2.65;;
8094;SDS011;4090;49.270;8.696;2022-08-21T00:02:58;4.15;;;2.72;;
8094;SDS011;4090;49.270;8.696;2022-08-21T00:05:42;2.60;;;2.40;;
8094;SDS011;4090;49.270;8.696;2022-08-21T00:08:26;3.97;;;2.63;;
8094;SDS011;4090;49.270;8.696;2022-08-21T00:11:10;4.38;;;2.60;;
8094;SDS011;4090;49.270;8.696;2022-08-21T00:13:52;4.60;;;2.90;;
8094;SDS011;4090;49.270;8.696;2022-08-21T00:16:34;4.03;;;2.72;;
8094;SDS011;4090;49.270;8.696;2022-08-21T00:19:16;5.20;;;2.70;;
8094;SDS011;4090;49.270;8.696;2022-08-21T00:21:58;3.38;;;2.50;;
8094;SDS011;4090;49.270;8.696;2022-08-21T00:24:40;4.43;;;2.63;;
8094;SDS011;4090;49.270;8.696;2022-08-21T00:27:23;3.83;;;2.70;;
8094;SDS011;4090;49.270;8.696;2022-08-21T00:30:06;5.90;;;3.10;;
8094;SDS011;4090;49.270;8.696;2022-08-21T00:32:49;4.90;;;2.65;;
8094;SDS011;4090;49.270;8.696;2022-08-21T00:35:33;2.90;;;2.50;;
8094;SDS011;4090;49.270;8.696;2022-08-21T00:38:16;3.38;;;2.53;;
8094;SDS011;4090;49.270;8.696;2022-08-21T00:40:59;3.92;;;2.60;;
8094;SDS011;4090;49.270;8.696;2022-08-21T00:43:44;3.05;;;2.50;;
8094;SDS011;4090;49.270;8.696;2022-08-21T00:46:26;2.90;;;2.30;;
8094;SDS011;4090;49.270;8.696;2022-08-21T00:49:08;4.13;;;2.60;;
8094;SDS011;4090;49.270;8.696;2022-08-21T00:51:52;3.35;;;2.60;;
8094;SDS011;4090;49.270;8.696;2022-08-21T00:54:38;2.92;;;2.63;;
8094;SDS011;4090;49.270;8.696;2022-08-21T00:57:22;3.53;;;2.58;;
8094;SDS011;4090;49.270;8.696;2022-08-21T01:00:11;4.25;;;2.63;;
8094;SDS011;4090;49.270;8.696;2022-08-21T01:02:56;3.83;;;2.60;;
8094;SDS011;4090;49.270;8.696;2022-08-21T01:05:40;4.93;;;2.78;;
8094;SDS011;4090;49.270;8.696;2022-08-21T01:08:23;4.18;;;2.38;;
8094;SDS011;4090;49.270;8.696;2022-08-21T01:11:05;3.47;;;2.55;;
8094;SDS011;4090;49.270;8.696;2022-08-21T01:13:47;4.43;;;2.65;;
8094;SDS011;4090;49.270;8.696;2022-08-21T01:16:33;3.03;;;2.20;;
8094;SDS011;4090;49.270;8.696;2022-08-21T01:19:15;5.35;;;2.80;;
8094;SDS011;4090;49.270;8.696;2022-08-21T01:22:00;7.53;;;2.88;;
8094;SDS011;4090;49.270;8.696;2022-08-21T01:24:42;3.65;;;2.83;;
8094;SDS011;4090;49.270;8.696;2022-08-21T01:27:24;4.10;;;3.03;;
8094;SDS011;4090;49.270;8.696;2022-08-21T01:30:08;4.32;;;2.75;;
8094;SDS011;4090;49.270;8.696;2022-08-21T01:32:56;4.00;;;2.70;;
8094;SDS011;4090;49.270;8.696;2022-08-21T01:35:38;4.22;;;2.63;;
8094;SDS011;4090;49.270;8.696;2022-08-21T01:38:21;6.25;;;2.90;;
8094;SDS011;4090;49.270;8.696;2022-08-21T01:41:04;4.75;;;2.70;;
8094;SDS011;4090;49.270;8.696;2022-08-21T01:43:47;4.95;;;2.70;;
8094;SDS011;4090;49.270;8.696;2022-08-21T01:46:29;4.68;;;3.45;;
8094;SDS011;4090;49.270;8.696;2022-08-21T01:49:11;4.18;;;2.63;;
8094;SDS011;4090;49.270;8.696;2022-08-21T01:51:53;3.70;;;2.80;;
8094;SDS011;4090;49.270;8.696;2022-08-21T01:54:37;4.78;;;3.10;;
8094;SDS011;4090;49.270;8.696;2022-08-21T01:57:19;4.95;;;2.80;;
8094;SDS011;4090;49.270;8.696;2022-08-21T02:00:03;5.85;;;3.10;;
8094;SDS011;4090;49.270;8.696;2022-08-21T02:02:52;3.20;;;2.55;;
8094;SDS011;4090;49.270;8.696;2022-08-21T02:05:34;4.18;;;3.03;;
8094;SDS011;4090;49.270;8.696;2022-08-21T02:08:16;3.53;;;2.80;;
8094;SDS011;4090;49.270;8.696;2022-08-21T02:10:59;4.95;;;2.95;;
8094;SDS011;4090;49.270;8.696;2022-08-21T02:13:41;4.90;;;2.90;;
8094;SDS011;4090;49.270;8.696;2022-08-21T02:16:23;7.00;;;3.15;;
8094;SDS011;4090;49.270;8.696;2022-08-21T02:19:06;5.32;;;2.75;;
8094;SDS011;4090;49.270;8.696;2022-08-21T02:21:48;5.25;;;2.63;;
8094;SDS011;4090;49.270;8.696;2022-08-21T02:24:30;5.85;;;2.90;;
8094;SDS011;4090;49.270;8.696;2022-08-21T02:27:13;5.10;;;2.95;;
8094;SDS011;4090;49.270;8.696;2022-08-21T02:29:56;5.85;;;2.95;;
8094;SDS011;4090;49.270;8.696;2022-08-21T02:32:38;4.85;;;2.85;;
8094;SDS011;4090;49.270;8.696;2022-08-21T02:35:20;4.78;;;3.00;;
8094;SDS011;4090;49.270;8.696;2022-08-21T02:38:04;4.95;;;3.00;;
8094;SDS011;4090;49.270;8.696;2022-08-21T02:40:48;4.40;;;2.80;;
8094;SDS011;4090;49.270;8.696;2022-08-21T02:43:34;3.50;;;2.83;;
8094;SDS011;4090;49.270;8.696;2022-08-21T02:46:18;5.05;;;2.90;;
8094;SDS011;4090;49.270;8.696;2022-08-21T02:49:00;3.45;;;2.92;;
8094;SDS011;4090;49.270;8.696;2022-08-21T02:51:42;5.55;;;2.95;;
8094;SDS011;4090;49.270;8.696;2022-08-21T02:54:24;4.22;;;3.13;;
8094;SDS011;4090;49.270;8.696;2022-08-21T02:57:06;5.38;;;2.83;;
8094;SDS011;4090;49.270;8.696;2022-08-21T02:59:49;4.75;;;3.33;;
8094;SDS011;4090;49.270;8.696;2022-08-21T03:02:31;5.20;;;3.35;;
8094;SDS011;4090;49.270;8.696;2022-08-21T03:05:15;4.40;;;3.00;;
8094;SDS011;4090;49.270;8.696;2022-08-21T03:07:58;4.57;;;2.90;;
8094;SDS011;4090;49.270;8.696;2022-08-21T03:10:41;5.28;;;3.08;;
8094;SDS011;4090;49.270;8.696;2022-08-21T03:13:24;4.22;;;2.80;;
8094;SDS011;4090;49.270;8.696;2022-08-21T03:16:08;5.78;;;3.15;;
8094;SDS011;4090;49.270;8.696;2022-08-21T03:18:50;5.60;;;3.03;;
8094;SDS011;4090;49.270;8.696;2022-08-21T03:21:33;5.97;;;2.90;;
8094;SDS011;4090;49.270;8.696;2022-08-21T03:24:15;5.30;;;3.03;;
8094;SDS011;4090;49.270;8.696;2022-08-21T03:26:56;6.35;;;2.67;;
8094;SDS011;4090;49.270;8.696;2022-08-21T03:29:38;3.67;;;2.85;;
8094;SDS011;4090;49.270;8.696;2022-08-21T03:32:22;4.93;;;3.03;;
8094;SDS011;4090;49.270;8.696;2022-08-21T03:35:04;4.68;;;2.72;;
8094;SDS011;4090;49.270;8.696;2022-08-21T03:37:46;5.30;;;3.03;;
8094;SDS011;4090;49.270;8.696;2022-08-21T03:40:28;4.32;;;3.10;;
8094;SDS011;4090;49.270;8.696;2022-08-21T03:43:10;6.22;;;3.30;;
8094;SDS011;4090;49.270;8.696;2022-08-21T03:45:52;4.13;;;2.60;;
8094;SDS011;4090;49.270;8.696;2022-08-21T03:48:36;3.22;;;2.88;;
8094;SDS011;4090;49.270;8.696;2022-08-21T03:51:18;3.97;;;2.58;;
8094;SDS011;4090;49.270;8.696;2022-08-21T03:54:03;6.35;;;3.38;;
8094;SDS011;4090;49.270;8.696;2022-08-21T03:56:45;5.05;;;2.97;;
8094;SDS011;4090;49.270;8.696;2022-08-21T03:59:27;3.05;;;2.40;;
8094;SDS011;4090;49.270;8.696;2022-08-21T04:02:09;5.43;;;2.95;;
8094;SDS011;4090;49.270;8.696;2022-08-21T04:04:52;4.20;;;2.72;;
8094;SDS011;4090;49.270;8.696;2022-08-21T04:07:34;5.15;;;2.83;;
8094;SDS011;4090;49.270;8.696;2022-08-21T04:10:16;4.15;;;2.85;;
8094;SDS011;4090;49.270;8.696;2022-08-21T04:12:58;4.32;;;2.88;;
8094;SDS011;4090;49.270;8.696;2022-08-21T04:15:40;4.03;;;2.85;;
8094;SDS011;4090;49.270;8.696;2022-08-21T04:18:22;3.63;;;2.50;;
8094;SDS011;4090;49.270;8.696;2022-08-21T04:21:06;5.55;;;2.50;;
8094;SDS011;4090;49.270;8.696;2022-08-21T04:23:50;4.15;;;2.70;;
8094;SDS011;4090;49.270;8.696;2022-08-21T04:26:32;4.03;;;2.88;;
8094;SDS011;4090;49.270;8.696;2022-08-21T04:29:14;4.25;;;2.70;;
8094;SDS011;4090;49.270;8.696;2022-08-21T04:31:56;5.05;;;3.22;;
8094;SDS011;4090;49.270;8.696;2022-08-21T04:34:37;4.05;;;2.85;;
8094;SDS011;4090;49.270;8.696;2022-08-21T04:37:21;6.28;;;2.88;;
8094;SDS011;4090;49.270;8.696;2022-08-21T04:40:03;3.65;;;2.60;;
8094;SDS011;4090;49.270;8.696;2022-08-21T04:42:47;4.93;;;2.80;;
8094;SDS011;4090;49.270;8.696;2022-08-21T04:45:31;4.82;;;2.88;;
8094;SDS011;4090;49.270;8.696;2022-08-21T04:48:16;4.32;;;2.80;;
8094;SDS011;4090;49.270;8.696;2022-08-21T04:51:00;3.33;;;2.50;;
8094;SDS011;4090;49.270;8.696;2022-08-21T04:53:48;3.50;;;2.72;;
8094;SDS011;4090;49.270;8.696;2022-08-21T04:56:35;3.40;;;2.97;;
8094;SDS011;4090;49.270;8.696;2022-08-21T04:59:21;6.80;;;3.20;;
8094;SDS011;4090;49.270;8.696;2022-08-21T05:02:07;4.72;;;2.50;;
8094;SDS011;4090;49.270;8.696;2022-08-21T05:04:51;4.25;;;2.88;;
8094;SDS011;4090;49.270;8.696;2022-08-21T05:07:35;5.18;;;3.25;;
8094;SDS011;4090;49.270;8.696;2022-08-21T05:10:19;4.72;;;2.95;;
8094;SDS011;4090;49.270;8.696;2022-08-21T05:13:01;3.28;;;2.95;;
8094;SDS011;4090;49.270;8.696;2022-08-21T05:15:44;3.40;;;2.95;;
8094;SDS011;4090;49.270;8.696;2022-08-21T05:18:27;5.30;;;3.10;;
8094;SDS011;4090;49.270;8.696;2022-08-21T05:21:09;4.20;;;3.13;;
8094;SDS011;4090;49.270;8.696;2022-08-21T05:23:50;5.13;;;3.17;;
8094;SDS011;4090;49.270;8.696;2022-08-21T05:26:34;3.60;;;2.85;;
8094;SDS011;4090;49.270;8.696;2022-08-21T05:29:16;4.38;;;3.05;;
8094;SDS011;4090;49.270;8.696;2022-08-21T05:31:59;7.00;;;3.35;;
8094;SDS011;4090;49.270;8.696;2022-08-21T05:34:41;5.03;;;3.00;;
8094;SDS011;4090;49.270;8.696;2022-08-21T05:37:23;3.75;;;2.75;;
8094;SDS011;4090;49.270;8.696;2022-08-21T05:40:05;5.93;;;3.40;;
8094;SDS011;4090;49.270;8.696;2022-08-21T05:42:49;4.68;;;3.20;;
8094;SDS011;4090;49.270;8.696;2022-08-21T05:45:32;6.97;;;3.30;;
8094;SDS011;4090;49.270;8.696;2022-08-21T05:48:15;4.28;;;3.08;;
8094;SDS011;4090;49.270;8.696;2022-08-21T05:51:03;3.83;;;2.80;;
8094;SDS011;4090;49.270;8.696;2022-08-21T05:53:46;4.93;;;3.15;;
8094;SDS011;4090;49.270;8.696;2022-08-21T05:56:28;5.03;;;3.05;;
8094;SDS011;4090;49.270;8.696;2022-08-21T05:59:11;4.90;;;2.90;;
8094;SDS011;4090;49.270;8.696;2022-08-21T06:01:53;6.57;;;3.00;;
8094;SDS011;4090;49.270;8.696;2022-08-21T06:04:35;7.15;;;3.03;;
8094;SDS011;4090;49.270;8.696;2022-08-21T06:07:18;3.58;;;3.17;;
8094;SDS011;4090;49.270;8.696;2022-08-21T06:09:59;8.90;;;3.40;;
8094;SDS011;4090;49.270;8.696;2022-08-21T06:12:42;5.55;;;2.92;;
8094;SDS011;4090;49.270;8.696;2022-08-21T06:15:25;3.63;;;3.00;;
8094;SDS011;4090;49.270;8.696;2022-08-21T06:18:07;5.57;;;2.95;;
8094;SDS011;4090;49.270;8.696;2022-08-21T06:20:49;4.35;;;3.03;;
8094;SDS011;4090;49.270;8.696;2022-08-21T06:23:31;4.82;;;3.22;;
8094;SDS011;4090;49.270;8.696;2022-08-21T06:26:14;8.05;;;3.30;;
8094;SDS011;4090;49.270;8.696;2022-08-21T06:28:56;4.07;;;2.90;;
8094;SDS011;4090;49.270;8.696;2022-08-21T06:31:40;5.15;;;3.03;;
8094;SDS011;4090;49.270;8.696;2022-08-21T06:34:21;4.93;;;3.17;;
8094;SDS011;4090;49.270;8.696;2022-08-21T06:37:03;5.30;;;3.10;;
8094;SDS011;4090;49.270;8.696;2022-08-21T06:39:45;7.32;;;3.40;;
8094;SDS011;4090;49.270;8.696;2022-08-21T06:42:27;9.00;;;3.47;;
8094;SDS011;4090;49.270;8.696;2022-08-21T06:45:09;5.93;;;3.03;;
8094;SDS011;4090;49.270;8.696;2022-08-21T06:47:52;6.60;;;3.30;;
8094;SDS011;4090;49.270;8.696;2022-08-21T06:50:34;5.68;;;4.18;;
8094;SDS011;4090;49.270;8.696;2022-08-21T06:53:17;6.20;;;3.58;;
8094;SDS011;4090;49.270;8.696;2022-08-21T06:56:00;6.90;;;3.55;;
8094;SDS011;4090;49.270;8.696;2022-08-21T06:58:43;3.85;;;3.03;;
8094;SDS011;4090;49.270;8.696;2022-08-21T07:01:25;7.15;;;3.38;;
8094;SDS011;4090;49.270;8.696;2022-08-21T07:04:09;4.05;;;3.03;;
8094;SDS011;4090;49.270;8.696;2022-08-21T07:06:51;6.57;;;3.35;;
8094;SDS011;4090;49.270;8.696;2022-08-21T07:09:33;8.07;;;3.42;;
8094;SDS011;4090;49.270;8.696;2022-08-21T07:12:15;6.97;;;3.83;;
8094;SDS011;4090;49.270;8.696;2022-08-21T07:14:57;7.13;;;3.47;;
8094;SDS011;4090;49.270;8.696;2022-08-21T07:17:39;6.95;;;3.80;;
8094;SDS011;4090;49.270;8.696;2022-08-21T07:20:22;6.15;;;3.45;;
8094;SDS011;4090;49.270;8.696;2022-08-21T07:23:05;5.68;;;3.13;;
8094;SDS011;4090;49.270;8.696;2022-08-21T07:25:48;8.07;;;3.55;;
8094;SDS011;4090;49.270;8.696;2022-08-21T07:28:30;6.88;;;3.20;;
8094;SDS011;4090;49.270;8.696;2022-08-21T07:31:13;5.72;;;3.60;;
8094;SDS011;4090;49.270;8.696;2022-08-21T07:33:56;8.35;;;3.30;;
8094;SDS011;4090;49.270;8.696;2022-08-21T07:36:39;5.60;;;3.30;;
8094;SDS011;4090;49.270;8.696;2022-08-21T07:39:21;5.78;;;3.17;;
8094;SDS011;4090;49.270;8.696;2022-08-21T07:42:03;7.25;;;3.20;;
8094;SDS011;4090;49.270;8.696;2022-08-21T07:44:45;8.65;;;3.42;;
8094;SDS011;4090;49.270;8.696;2022-08-21T07:47:27;5.38;;;3.30;;
8094;SDS011;4090;49.270;8.696;2022-08-21T07:50:09;8.20;;;3.83;;
8094;SDS011;4090;49.270;8.696;2022-08-21T07:52:53;5.95;;;3.47;;
8094;SDS011;4090;49.270;8.696;2022-08-21T07:55:35;6.75;;;3.63;;
8094;SDS011;4090;49.270;8.696;2022-08-21T07:58:17;7.75;;;3.70;;
8094;SDS011;4090;49.270;8.696;2022-08-21T08:00:59;5.22;;;3.05;;
8094;SDS011;4090;49.270;8.696;2022-08-21T08:03:41;11.68;;;3.70;;
8094;SDS011;4090;49.270;8.696;2022-08-21T08:06:23;9.57;;;3.40;;
8094;SDS011;4090;49.270;8.696;2022-08-21T08:09:07;10.98;;;3.35;;
8094;SDS011;4090;49.270;8.696;2022-08-21T08:11:50;5.53;;;3.15;;
8094;SDS011;4090;49.270;8.696;2022-08-21T08:14:31;7.82;;;3.33;;
8094;SDS011;4090;49.270;8.696;2022-08-21T08:17:13;10.00;;;3.45;;
8094;SDS011;4090;49.270;8.696;2022-08-21T08:19:55;7.78;;;3.78;;
8094;SDS011;4090;49.270;8.696;2022-08-21T08:22:37;8.07;;;4.00;;
8094;SDS011;4090;49.270;8.696;2022-08-21T08:25:22;8.38;;;3.85;;
8094;SDS011;4090;49.270;8.696;2022-08-21T08:28:05;9.48;;;3.40;;
8094;SDS011;4090;49.270;8.696;2022-08-21T08:30:47;7.82;;;3.70;;
8094;SDS011;4090;49.270;8.696;2022-08-21T08:33:30;7.38;;;3.40;;
8094;SDS011;4090;49.270;8.696;2022-08-21T08:36:13;11.65;;;4.45;;
8094;SDS011;4090;49.270;8.696;2022-08-21T08:38:55;6.13;;;3.92;;
8094;SDS011;4090;49.270;8.696;2022-08-21T08:41:39;9.93;;;3.97;;
8094;SDS011;4090;49.270;8.696;2022-08-21T08:44:22;8.43;;;3.55;;
8094;SDS011;4090;49.270;8.696;2022-08-21T08:47:04;9.52;;;3.78;;
8094;SDS011;4090;49.270;8.696;2022-08-21T08:49:47;6.03;;;3.55;;
8094;SDS011;4090;49.270;8.696;2022-08-21T08:52:44;10.63;;;3.80;;
8094;SDS011;4090;49.270;8.696;2022-08-21T08:55:32;7.53;;;3.80;;
8094;SDS011;4090;49.270;8.696;2022-08-21T08:58:20;8.63;;;3.67;;
8094;SDS011;4090;49.270;8.696;2022-08-21T09:01:05;8.18;;;3.72;;
8094;SDS011;4090;49.270;8.696;2022-08-21T09:03:54;7.05;;;3.78;;
8094;SDS011;4090;49.270;8.696;2022-08-21T09:06:43;6.53;;;4.07;;
8094;SDS011;4090;49.270;8.696;2022-08-21T09:09:46;8.82;;;4.00;;
8094;SDS011;4090;49.270;8.696;2022-08-21T09:12:39;9.20;;;4.03;;
8094;SDS011;4090;49.270;8.696;2022-08-21T09:15:35;5.93;;;3.92;;
8094;SDS011;4090;49.270;8.696;2022-08-21T09:18:27;8.40;;;3.85;;
8094;SDS011;4090;49.270;8.696;2022-08-21T09:21:20;5.55;;;3.30;;
8094;SDS011;4090;49.270;8.696;2022-08-21T09:24:14;10.93;;;3.80;;
8094;SDS011;4090;49.270;8.696;2022-08-21T09:27:07;8.32;;;3.80;;
8094;SDS011;4090;49.270;8.696;2022-08-21T09:29:52;5.30;;;3.42;;
8094;SDS011;4090;49.270;8.696;2022-08-21T09:32:36;5.93;;;3.47;;
8094;SDS011;4090;49.270;8.696;2022-08-21T09:35:20;8.77;;;3.63;;
8094;SDS011;4090;49.270;8.696;2022-08-21T09:38:05;6.97;;;3.40;;
8094;SDS011;4090;49.270;8.696;2022-08-21T09:40:54;7.35;;;3.90;;
8094;SDS011;4090;49.270;8.696;2022-08-21T09:43:38;5.97;;;3.63;;
8094;SDS011;4090;49.270;8.696;2022-08-21T09:46:21;5.85;;;3.30;;
8094;SDS011;4090;49.270;8.696;2022-08-21T09:49:05;5.75;;;3.13;;
8094;SDS011;4090;49.270;8.696;2022-08-21T09:51:49;7.78;;;3.13;;
8094;SDS011;4090;49.270;8.696;2022-08-21T09:54:34;6.68;;;3.50;;
8094;SDS011;4090;49.270;8.696;2022-08-21T09:57:22;8.60;;;3.30;;
8094;SDS011;4090;49.270;8.696;2022-08-21T10:00:27;7.45;;;3.30;;
8094;SDS011;4090;49.270;8.696;2022-08-21T10:03:12;7.65;;;3.78;;
8094;SDS011;4090;49.270;8.696;2022-08-21T10:06:00;8.88;;;3.42;;
8094;SDS011;4090;49.270;8.696;2022-08-21T10:08:45;7.90;;;3.15;;
8094;SDS011;4090;49.270;8.696;2022-08-21T10:11:27;7.65;;;3.22;;
8094;SDS011;4090;49.270;8.696;2022-08-21T10:14:13;4.57;;;3.20;;
8094;SDS011;4090;49.270;8.696;2022-08-21T10:17:17;6.70;;;3.55;;
8094;SDS011;4090;49.270;8.696;2022-08-21T10:20:09;5.97;;;3.15;;
8094;SDS011;4090;49.270;8.696;2022-08-21T10:23:02;6.30;;;3.15;;
8094;SDS011;4090;49.270;8.696;2022-08-21T10:25:55;6.22;;;3.30;;
8094;SDS011;4090;49.270;8.696;2022-08-21T10:28:44;6.10;;;3.75;;
8094;SDS011;4090;49.270;8.696;2022-08-21T10:31:34;7.38;;;3.20;;
8094;SDS011;4090;49.270;8.696;2022-08-21T10:34:24;9.60;;;3.28;;
8094;SDS011;4090;49.270;8.696;2022-08-21T10:37:18;7.13;;;3.40;;
8094;SDS011;4090;49.270;8.696;2022-08-21T10:40:10;8.80;;;3.65;;
8094;SDS011;4090;49.270;8.696;2022-08-21T10:43:07;9.25;;;3.33;;
8094;SDS011;4090;49.270;8.696;2022-08-21T10:46:02;8.82;;;3.42;;
8094;SDS011;4090;49.270;8.696;2022-08-21T10:48:50;9.05;;;3.50;;
8094;SDS011;4090;49.270;8.696;2022-08-21T10:51:50;5.72;;;3.05;;
8094;SDS011;4090;49.270;8.696;2022-08-21T10:54:44;5.68;;;2.97;;
8094;SDS011;4090;49.270;8.696;2022-08-21T10:57:36;5.35;;;3.28;;
8094;SDS011;4090;49.270;8.696;2022-08-21T11:00:26;5.47;;;3.10;;
8094;SDS011;4090;49.270;8.696;2022-08-21T11:03:16;6.85;;;2.90;;
8094;SDS011;4090;49.270;8.696;2022-08-21T11:06:02;5.05;;;3.25;;
8094;SDS011;4090;49.270;8.696;2022-08-21T11:08:51;7.20;;;3.45;;
8094;SDS011;4090;49.270;8.696;2022-08-21T11:11:38;5.90;;;3.03;;
8094;SDS011;4090;49.270;8.696;2022-08-21T11:14:29;6.60;;;2.78;;
8094;SDS011;4090;49.270;8.696;2022-08-21T11:17:18;5.63;;;2.67;;
8094;SDS011;4090;49.270;8.696;2022-08-21T11:20:07;7.28;;;2.97;;
8094;SDS011;4090;49.270;8.696;2022-08-21T11:22:56;5.22;;;2.85;;
8094;SDS011;4090;49.270;8.696;2022-08-21T11:25:44;5.32;;;3.00;;
8094;SDS011;4090;49.270;8.696;2022-08-21T11:28:31;5.22;;;3.00;;
8094;SDS011;4090;49.270;8.696;2022-08-21T11:31:22;4.68;;;3.17;;
8094;SDS011;4090;49.270;8.696;2022-08-21T11:34:18;5.35;;;3.08;;
8094;SDS011;4090;49.270;8.696;2022-08-21T11:37:09;6.20;;;3.25;;
8094;SDS011;4090;49.270;8.696;2022-08-21T11:40:03;6.22;;;3.03;;
8094;SDS011;4090;49.270;8.696;2022-08-21T11:42:50;7.65;;;3.53;;
8094;SDS011;4090;49.270;8.696;2022-08-21T11:45:43;3.42;;;2.72;;
8094;SDS011;4090;49.270;8.696;2022-08-21T11:48:34;6.70;;;2.83;;
8094;SDS011;4090;49.270;8.696;2022-08-21T11:51:22;6.20;;;3.20;;
8094;SDS011;4090;49.270;8.696;2022-08-21T11:54:13;6.55;;;3.03;;
8094;SDS011;4090;49.270;8.696;2022-08-21T11:57:05;5.90;;;2.97;;
8094;SDS011;4090;49.270;8.696;2022-08-21T11:59:54;4.93;;;2.83;;
8094;SDS011;4090;49.270;8.696;2022-08-21T12:02:47;5.45;;;3.15;;
8094;SDS011;4090;49.270;8.696;2022-08-21T12:05:33;6.07;;;2.92;;
8094;SDS011;4090;49.270;8.696;2022-08-21T12:08:26;6.32;;;3.10;;
8094;SDS011;4090;49.270;8.696;2022-08-21T12:11:20;3.90;;;2.63;;
8094;SDS011;4090;49.270;8.696;2022-08-21T12:14:11;6.03;;;2.90;;
8094;SDS011;4090;49.270;8.696;2022-08-21T12:17:03;6.70;;;3.00;;
8094;SDS011;4090;49.270;8.696;2022-08-21T12:19:56;4.25;;;2.50;;
8094;SDS011;4090;49.270;8.696;2022-08-21T12:22:40;4.57;;;2.50;;
8094;SDS011;4090;49.270;8.696;2022-08-21T12:25:22;7.28;;;3.20;;
8094;SDS011;4090;49.270;8.696;2022-08-21T12:28:06;6.63;;;2.80;;
8094;SDS011;4090;49.270;8.696;2022-08-21T12:30:50;4.20;;;2.50;;
8094;SDS011;4090;49.270;8.696;2022-08-21T12:33:33;5.25;;;2.53;;
8094;SDS011;4090;49.270;8.696;2022-08-21T12:36:21;5.65;;;2.92;;
8094;SDS011;4090;49.270;8.696;2022-08-21T12:39:10;5.40;;;2.75;;
8094;SDS011;4090;49.270;8.696;2022-08-21T12:41:56;5.65;;;2.53;;
8094;SDS011;4090;49.270;8.696;2022-08-21T12:44:42;5.85;;;2.75;;
8094;SDS011;4090;49.270;8.696;2022-08-21T12:47:31;5.93;;;2.70;;
8094;SDS011;4090;49.270;8.696;2022-08-21T12:50:19;4.90;;;2.50;;
8094;SDS011;4090;49.270;8.696;2022-08-21T12:53:04;5.35;;;2.67;;
8094;SDS011;4090;49.270;8.696;2022-08-21T12:55:51;4.13;;;2.30;;
8094;SDS011;4090;49.270;8.696;2022-08-21T12:58:35;4.35;;;2.30;;
8094;SDS011;4090;49.270;8.696;2022-08-21T13:01:19;3.22;;;2.28;;
8094;SDS011;4090;49.270;8.696;2022-08-21T13:04:06;4.78;;;2.42;;
8094;SDS011;4090;49.270;8.696;2022-08-21T13:06:53;4.47;;;2.45;;
8094;SDS011;4090;49.270;8.696;2022-08-21T13:09:41;4.68;;;2.50;;
8094;SDS011;4090;49.270;8.696;2022-08-21T13:12:29;4.00;;;2.50;;
8094;SDS011;4090;49.270;8.696;2022-08-21T13:15:11;2.70;;;2.38;;
8094;SDS011;4090;49.270;8.696;2022-08-21T13:17:54;2.83;;;2.20;;
8094;SDS011;4090;49.270;8.696;2022-08-21T13:20:41;7.63;;;2.65;;
8094;SDS011;4090;49.270;8.696;2022-08-21T13:23:26;5.30;;;2.28;;
8094;SDS011;4090;49.270;8.696;2022-08-21T13:26:13;3.28;;;2.10;;
8094;SDS011;4090;49.270;8.696;2022-08-21T13:28:56;3.35;;;2.47;;
8094;SDS011;4090;49.270;8.696;2022-08-21T13:31:51;5.07;;;2.50;;
8094;SDS011;4090;49.270;8.696;2022-08-21T13:34:36;4.88;;;2.35;;
8094;SDS011;4090;49.270;8.696;2022-08-21T13:37:19;3.85;;;2.30;;
8094;SDS011;4090;49.270;8.696;2022-08-21T13:40:06;4.85;;;2.53;;
8094;SDS011;4090;49.270;8.696;2022-08-21T13:42:50;4.72;;;2.20;;
8094;SDS011;4090;49.270;8.696;2022-08-21T13:45:34;5.00;;;2.90;;
8094;SDS011;4090;49.270;8.696;2022-08-21T13:48:16;4.32;;;2.45;;
8094;SDS011;4090;49.270;8.696;2022-08-21T13:50:59;4.72;;;2.25;;
8094;SDS011;4090;49.270;8.696;2022-08-21T13:53:44;3.47;;;2.25;;
8094;SDS011;4090;49.270;8.696;2022-08-21T13:56:32;2.95;;;2.40;;
8094;SDS011;4090;49.270;8.696;2022-08-21T13:59:24;4.32;;;2.45;;
8094;SDS011;4090;49.270;8.696;2022-08-21T14:02:10;2.33;;;2.13;;
8094;SDS011;4090;49.270;8.696;2022-08-21T14:04:56;3.28;;;2.28;;
8094;SDS011;4090;49.270;8.696;2022-08-21T14:07:40;4.47;;;2.28;;
8094;SDS011;4090;49.270;8.696;2022-08-21T14:10:23;4.97;;;2.63;;
8094;SDS011;4090;49.270;8.696;2022-08-21T14:13:20;4.32;;;2.60;;
8094;SDS011;4090;49.270;8.696;2022-08-21T14:16:14;5.55;;;2.40;;
8094;SDS011;4090;49.270;8.696;2022-08-21T14:19:08;3.28;;;2.47;;
8094;SDS011;4090;49.270;8.696;2022-08-21T14:21:51;4.55;;;2.17;;
8094;SDS011;4090;49.270;8.696;2022-08-21T14:24:39;4.25;;;2.33;;
8094;SDS011;4090;49.270;8.696;2022-08-21T14:27:21;4.60;;;2.42;;
8094;SDS011;4090;49.270;8.696;2022-08-21T14:30:09;3.65;;;2.40;;
8094;SDS011;4090;49.270;8.696;2022-08-21T14:32:53;4.35;;;2.30;;
8094;SDS011;4090;49.270;8.696;2022-08-21T14:35:36;3.97;;;2.15;;
8094;SDS011;4090;49.270;8.696;2022-08-21T14:38:20;3.00;;;1.90;;
8094;SDS011;4090;49.270;8.696;2022-08-21T14:41:07;2.60;;;1.77;;
8094;SDS011;4090;49.270;8.696;2022-08-21T14:43:56;3.17;;;2.08;;
8094;SDS011;4090;49.270;8.696;2022-08-21T14:46:38;3.92;;;2.15;;
8094;SDS011;4090;49.270;8.696;2022-08-21T14:49:20;3.50;;;2.10;;
8094;SDS011;4090;49.270;8.696;2022-08-21T14:52:03;3.10;;;2.42;;
8094;SDS011;4090;49.270;8.696;2022-08-21T14:54:45;3.22;;;2.30;;
8094;SDS011;4090;49.270;8.696;2022-08-21T14:57:27;2.50;;;2.30;;
8094;SDS011;4090;49.270;8.696;2022-08-21T15:00:12;2.95;;;1.98;;
8094;SDS011;4090;49.270;8.696;2022-08-21T15:02:56;2.80;;;2.50;;
8094;SDS011;4090;49.270;8.696;2022-08-21T15:05:38;2.28;;;2.08;;
8094;SDS011;4090;49.270;8.696;2022-08-21T15:08:21;5.68;;;2.67;;
8094;SDS011;4090;49.270;8.696;2022-08-21T15:11:04;3.35;;;2.22;;
8094;SDS011;4090;49.270;8.696;2022-08-21T15:13:47;3.63;;;2.25;;
8094;SDS011;4090;49.270;8.696;2022-08-21T15:16:34;2.65;;;2.30;;
8094;SDS011;4090;49.270;8.696;2022-08-21T15:19:16;3.60;;;2.30;;
8094;SDS011;4090;49.270;8.696;2022-08-21T15:21:59;2.58;;;2.03;;
8094;SDS011;4090;49.270;8.696;2022-08-21T15:24:42;2.25;;;2.00;;
8094;SDS011;4090;49.270;8.696;2022-08-21T15:27:24;3.03;;;2.17;;
8094;SDS011;4090;49.270;8.696;2022-08-21T15:30:06;3.50;;;2.45;;
8094;SDS011;4090;49.270;8.696;2022-08-21T15:32:48;3.53;;;2.38;;
8094;SDS011;4090;49.270;8.696;2022-08-21T15:35:30;2.83;;;2.10;;
8094;SDS011;4090;49.270;8.696;2022-08-21T15:38:12;3.92;;;2.40;;
8094;SDS011;4090;49.270;8.696;2022-08-21T15:40:56;4.68;;;2.80;;
8094;SDS011;4090;49.270;8.696;2022-08-21T15:43:41;3.90;;;2.17;;
8094;SDS011;4090;49.270;8.696;2022-08-21T15:46:26;5.13;;;2.40;;
8094;SDS011;4090;49.270;8.696;2022-08-21T15:49:07;3.67;;;2.20;;
8094;SDS011;4090;49.270;8.696;2022-08-21T15:51:49;4.82;;;2.45;;
8094;SDS011;4090;49.270;8.696;2022-08-21T15:54:31;3.13;;;2.20;;
8094;SDS011;4090;49.270;8.696;2022-08-21T15:57:15;3.45;;;2.42;;
8094;SDS011;4090;49.270;8.696;2022-08-21T16:00:01;4.68;;;2.58;;
8094;SDS011;4090;49.270;8.696;2022-08-21T16:02:53;3.08;;;2.10;;
8094;SDS011;4090;49.270;8.696;2022-08-21T16:05:38;3.08;;;2.03;;
8094;SDS011;4090;49.270;8.696;2022-08-21T16:08:20;3.08;;;2.30;;
8094;SDS011;4090;49.270;8.696;2022-08-21T16:11:02;5.07;;;2.38;;
8094;SDS011;4090;49.270;8.696;2022-08-21T16:13:45;4.35;;;2.50;;
8094;SDS011;4090;49.270;8.696;2022-08-21T16:16:29;2.53;;;2.17;;
8094;SDS011;4090;49.270;8.696;2022-08-21T16:19:14;4.30;;;2.60;;
8094;SDS011;4090;49.270;8.696;2022-08-21T16:21:56;3.38;;;2.28;;
8094;SDS011;4090;49.270;8.696;2022-08-21T16:24:38;3.67;;;2.55;;
8094;SDS011;4090;49.270;8.696;2022-08-21T16:27:20;5.65;;;2.55;;
8094;SDS011;4090;49.270;8.696;2022-08-21T16:30:04;3.13;;;2.60;;
8094;SDS011;4090;49.270;8.696;2022-08-21T16:32:47;3.95;;;2.35;;
8094;SDS011;4090;49.270;8.696;2022-08-21T16:35:30;3.90;;;2.40;;
8094;SDS011;4090;49.270;8.696;2022-08-21T16:38:12;4.80;;;2.72;;
8094;SDS011;4090;49.270;8.696;2022-08-21T16:40:54;2.95;;;2.20;;
8094;SDS011;4090;49.270;8.696;2022-08-21T16:43:37;4.13;;;2.55;;
8094;SDS011;4090;49.270;8.696;2022-08-21T16:46:22;2.85;;;2.53;;
8094;SDS011;4090;49.270;8.696;2022-08-21T16:49:03;4.45;;;2.33;;
8094;SDS011;4090;49.270;8.696;2022-08-21T16:51:45;4.43;;;2.60;;
8094;SDS011;4090;49.270;8.696;2022-08-21T16:54:27;4.45;;;2.35;;
8094;SDS011;4090;49.270;8.696;2022-08-21T16:57:10;3.70;;;2.80;;
8094;SDS011;4090;49.270;8.696;2022-08-21T16:59:52;3.47;;;2.45;;
8094;SDS011;4090;49.270;8.696;2022-08-21T17:02:36;5.85;;;2.70;;